Terminal Aerodrome Forecast
Issued by NWS Bismarck, ND

Home | Current Version | Previous Version | Text Only | Print | Product List | Glossary On
Versions: 1 2 3 4 5 6 7 8 9 10 11 12 13 14
000
FTUS43 KBIS 281100
TAFBIS
TAF
KBIS 281129Z 2812/2912 VRB03KT P6SM SCT150 SCT220
     FM281600 32009KT P6SM VCFG FEW002 SCT110 BKN150
      TEMPO 2816/2818 33017G24KT 1SM BR BKN003
     FM281800 32020G28KT P6SM VCSH SCT001 OVC004
     FM290100 32019G25KT P6SM -SHSN SCT001 OVC006=

USA.gov is the U.S. government's official web portal to all federal, state and local government web resources and services.